sensor_id;sensor_type;location;lat;lon;timestamp;pressure;altitude;pressure_sealevel;temperature;humidity
72707;BME280;62517;62.630;17.936;2022-10-18T05:50:33;101234.70;;;16.85;35.33
72707;BME280;62517;62.630;17.936;2022-10-18T05:53:04;101234.44;;;16.86;35.08
72707;BME280;62517;62.630;17.936;2022-10-18T05:55:37;101235.47;;;16.83;34.86
72707;BME280;62517;62.630;17.936;2022-10-18T05:58:05;101234.26;;;17.04;34.64
72707;BME280;62517;62.630;17.936;2022-10-18T06:00:33;101230.97;;;17.41;34.44
72707;BME280;62517;62.630;17.936;2022-10-18T06:03:08;101227.85;;;17.75;33.98
72707;BME280;62517;62.630;17.936;2022-10-18T06:05:37;101228.33;;;18.29;33.48
72707;BME280;62517;62.630;17.936;2022-10-18T06:08:05;101232.75;;;18.53;33.11
72707;BME280;62517;62.630;17.936;2022-10-18T06:10:33;101231.13;;;18.84;32.82
72707;BME280;62517;62.630;17.936;2022-10-18T06:13:02;101237.42;;;19.21;32.47
72707;BME280;62517;62.630;17.936;2022-10-18T06:15:31;101238.77;;;19.44;32.16
72707;BME280;62517;62.630;17.936;2022-10-18T06:17:58;101238.03;;;19.61;31.86
72707;BME280;62517;62.630;17.936;2022-10-18T06:20:26;101237.64;;;19.94;31.69
72707;BME280;62517;62.630;17.936;2022-10-18T06:22:54;101236.81;;;20.08;31.39
72707;BME280;62517;62.630;17.936;2022-10-18T06:25:22;101240.48;;;20.32;31.22
72707;BME280;62517;62.630;17.936;2022-10-18T06:27:50;101239.54;;;20.51;31.04
72707;BME280;62517;62.630;17.936;2022-10-18T06:30:18;101235.53;;;20.76;30.82
72707;BME280;62517;62.630;17.936;2022-10-18T06:32:46;101234.77;;;20.91;30.63
72707;BME280;62517;62.630;17.936;2022-10-18T06:35:14;101234.36;;;21.06;30.55
72707;BME280;62517;62.630;17.936;2022-10-18T06:37:41;101237.64;;;21.15;30.46
72707;BME280;62517;62.630;17.936;2022-10-18T06:40:10;101238.65;;;21.23;30.29
72707;BME280;62517;62.630;17.936;2022-10-18T06:42:39;101244.35;;;21.53;30.13
72707;BME280;62517;62.630;17.936;2022-10-18T06:45:08;101244.96;;;21.44;30.02
72707;BME280;62517;62.630;17.936;2022-10-18T06:47:36;101247.83;;;21.78;30.00
72707;BME280;62517;62.630;17.936;2022-10-18T06:50:05;101245.69;;;21.83;29.94
72707;BME280;62517;62.630;17.936;2022-10-18T06:52:34;101249.51;;;22.02;29.73
72707;BME280;62517;62.630;17.936;2022-10-18T06:55:03;101250.83;;;21.97;29.60
72707;BME280;62517;62.630;17.936;2022-10-18T06:57:31;101252.66;;;22.01;29.69
72707;BME280;62517;62.630;17.936;2022-10-18T06:59:59;101255.73;;;22.22;29.57
72707;BME280;62517;62.630;17.936;2022-10-18T07:02:29;101257.62;;;22.22;29.75
72707;BME280;62517;62.630;17.936;2022-10-18T07:07:41;101259.32;;;22.38;29.62
72707;BME280;62517;62.630;17.936;2022-10-18T07:10:10;101261.35;;;22.55;29.60
72707;BME280;62517;62.630;17.936;2022-10-18T07:12:39;101264.54;;;22.58;29.56
72707;BME280;62517;62.630;17.936;2022-10-18T07:15:07;101267.29;;;22.65;29.51
72707;BME280;62517;62.630;17.936;2022-10-18T07:17:36;101265.97;;;22.81;29.47
72707;BME280;62517;62.630;17.936;2022-10-18T07:20:04;101268.94;;;22.87;29.45
72707;BME280;62517;62.630;17.936;2022-10-18T07:22:33;101274.49;;;22.96;29.36
72707;BME280;62517;62.630;17.936;2022-10-18T07:25:02;101274.89;;;22.91;29.32
72707;BME280;62517;62.630;17.936;2022-10-18T07:27:35;101275.28;;;22.95;29.26
72707;BME280;62517;62.630;17.936;2022-10-18T07:30:06;101277.23;;;23.03;29.21
72707;BME280;62517;62.630;17.936;2022-10-18T07:32:36;101280.73;;;23.01;29.21
72707;BME280;62517;62.630;17.936;2022-10-18T07:35:06;101284.39;;;23.17;29.13
72707;BME280;62517;62.630;17.936;2022-10-18T07:37:34;101286.31;;;23.21;29.08
72707;BME280;62517;62.630;17.936;2022-10-18T07:40:03;101292.91;;;23.19;28.97
72707;BME280;62517;62.630;17.936;2022-10-18T07:42:33;101297.66;;;23.33;29.00
72707;BME280;62517;62.630;17.936;2022-10-18T07:45:02;101295.41;;;23.30;28.97
72707;BME280;62517;62.630;17.936;2022-10-18T07:47:31;101298.09;;;23.31;28.99
72707;BME280;62517;62.630;17.936;2022-10-18T07:49:59;101302.59;;;23.37;28.91
72707;BME280;62517;62.630;17.936;2022-10-18T07:52:27;101302.42;;;23.46;28.92
72707;BME280;62517;62.630;17.936;2022-10-18T07:54:55;101303.67;;;23.55;28.82
72707;BME280;62517;62.630;17.936;2022-10-18T07:57:24;101308.00;;;23.57;28.81
72707;BME280;62517;62.630;17.936;2022-10-18T07:59:54;101316.85;;;23.68;28.75
72707;BME280;62517;62.630;17.936;2022-10-18T08:02:22;101313.43;;;23.64;28.76
72707;BME280;62517;62.630;17.936;2022-10-18T08:04:51;101318.19;;;23.80;28.73
72707;BME280;62517;62.630;17.936;2022-10-18T08:07:19;101322.05;;;23.70;28.74
72707;BME280;62517;62.630;17.936;2022-10-18T08:09:48;101320.23;;;23.74;28.70
72707;BME280;62517;62.630;17.936;2022-10-18T08:12:16;101322.16;;;23.80;28.65
72707;BME280;62517;62.630;17.936;2022-10-18T08:14:45;101322.04;;;23.86;28.55
72707;BME280;62517;62.630;17.936;2022-10-18T08:17:14;101322.15;;;24.00;28.54
72707;BME280;62517;62.630;17.936;2022-10-18T08:19:41;101324.78;;;23.92;28.52
72707;BME280;62517;62.630;17.936;2022-10-18T08:22:10;101324.51;;;23.94;28.51
72707;BME280;62517;62.630;17.936;2022-10-18T08:24:39;101323.62;;;23.97;28.48
72707;BME280;62517;62.630;17.936;2022-10-18T08:27:09;101325.60;;;23.92;28.40
72707;BME280;62517;62.630;17.936;2022-10-18T08:29:38;101324.39;;;23.96;28.38
72707;BME280;62517;62.630;17.936;2022-10-18T08:32:06;101325.30;;;24.11;28.36
72707;BME280;62517;62.630;17.936;2022-10-18T08:34:36;101324.36;;;24.15;28.32
72707;BME280;62517;62.630;17.936;2022-10-18T08:37:06;101323.15;;;24.11;28.34
72707;BME280;62517;62.630;17.936;2022-10-18T08:39:36;101323.60;;;24.23;28.26
72707;BME280;62517;62.630;17.936;2022-10-18T08:42:34;101319.33;;;24.10;28.23
72707;BME280;62517;62.630;17.936;2022-10-18T08:45:10;101323.88;;;24.21;28.24
72707;BME280;62517;62.630;17.936;2022-10-18T08:47:42;101324.39;;;24.25;28.24
72707;BME280;62517;62.630;17.936;2022-10-18T08:50:15;101330.85;;;24.24;28.17
72707;BME280;62517;62.630;17.936;2022-10-18T08:52:49;101334.02;;;24.18;28.19
72707;BME280;62517;62.630;17.936;2022-10-18T08:55:25;101339.22;;;24.31;28.10
72707;BME280;62517;62.630;17.936;2022-10-18T08:57:56;101340.79;;;24.25;28.07
72707;BME280;62517;62.630;17.936;2022-10-18T09:00:28;101342.80;;;24.40;28.10
72707;BME280;62517;62.630;17.936;2022-10-18T09:03:13;101342.62;;;24.26;28.10
72707;BME280;62517;62.630;17.936;2022-10-18T09:05:50;101344.50;;;24.36;28.02
72707;BME280;62517;62.630;17.936;2022-10-18T09:08:36;101343.99;;;24.34;28.11
72707;BME280;62517;62.630;17.936;2022-10-18T09:11:19;101345.50;;;24.41;28.05
72707;BME280;62517;62.630;17.936;2022-10-18T09:14:02;101346.07;;;24.50;28.05
72707;BME280;62517;62.630;17.936;2022-10-18T09:16:40;101348.26;;;24.44;27.99
72707;BME280;62517;62.630;17.936;2022-10-18T09:19:20;101344.00;;;24.60;28.00
72707;BME280;62517;62.630;17.936;2022-10-18T09:21:57;101341.85;;;24.58;27.99
72707;BME280;62517;62.630;17.936;2022-10-18T09:24:31;101345.58;;;24.73;27.98
72707;BME280;62517;62.630;17.936;2022-10-18T09:27:13;101351.69;;;24.55;27.97
72707;BME280;62517;62.630;17.936;2022-10-18T09:29:54;101354.42;;;24.57;27.87
72707;BME280;62517;62.630;17.936;2022-10-18T09:32:34;101357.57;;;24.72;27.92
72707;BME280;62517;62.630;17.936;2022-10-18T09:35:15;101361.46;;;24.65;27.86
72707;BME280;62517;62.630;17.936;2022-10-18T09:37:46;101368.98;;;24.64;27.87
72707;BME280;62517;62.630;17.936;2022-10-18T09:40:20;101372.68;;;24.68;27.82
72707;BME280;62517;62.630;17.936;2022-10-18T09:42:54;101373.99;;;24.68;27.79
72707;BME280;62517;62.630;17.936;2022-10-18T09:45:29;101375.46;;;24.72;27.78
72707;BME280;62517;62.630;17.936;2022-10-18T09:48:03;101377.70;;;24.73;27.70
72707;BME280;62517;62.630;17.936;2022-10-18T09:50:38;101382.10;;;24.68;27.75
72707;BME280;62517;62.630;17.936;2022-10-18T09:53:16;101383.43;;;24.73;27.73
72707;BME280;62517;62.630;17.936;2022-10-18T09:55:59;101387.52;;;24.71;27.67
72707;BME280;62517;62.630;17.936;2022-10-18T09:58:39;101391.95;;;24.74;27.67
72707;BME280;62517;62.630;17.936;2022-10-18T10:03:20;101395.57;;;24.82;27.74
72707;BME280;62517;62.630;17.936;2022-10-18T10:06:01;101401.77;;;24.85;27.54
72707;BME280;62517;62.630;17.936;2022-10-18T10:08:32;101408.98;;;25.05;27.48
72707;BME280;62517;62.630;17.936;2022-10-18T10:11:01;101415.61;;;24.84;27.52
72707;BME280;62517;62.630;17.936;2022-10-18T10:13:31;101421.03;;;24.95;27.48
72707;BME280;62517;62.630;17.936;2022-10-18T10:16:01;101423.92;;;24.88;27.47
72707;BME280;62517;62.630;17.936;2022-10-18T10:18:32;101426.99;;;24.89;27.49
72707;BME280;62517;62.630;17.936;2022-10-18T10:21:03;101435.63;;;24.85;27.52
72707;BME280;62517;62.630;17.936;2022-10-18T10:23:36;101438.64;;;24.98;27.48
72707;BME280;62517;62.630;17.936;2022-10-18T10:26:21;101439.62;;;25.05;27.47
72707;BME280;62517;62.630;17.936;2022-10-18T10:28:49;101438.48;;;24.96;27.47
72707;BME280;62517;62.630;17.936;2022-10-18T10:31:27;101436.57;;;24.96;27.43
72707;BME280;62517;62.630;17.936;2022-10-18T10:34:03;101432.14;;;24.89;27.38
72707;BME280;62517;62.630;17.936;2022-10-18T10:36:33;101435.06;;;25.03;27.48
72707;BME280;62517;62.630;17.936;2022-10-18T10:39:17;101435.56;;;25.12;27.42
72707;BME280;62517;62.630;17.936;2022-10-18T10:41:47;101440.24;;;25.00;27.35
72707;BME280;62517;62.630;17.936;2022-10-18T10:44:19;101434.88;;;25.00;27.30
72707;BME280;62517;62.630;17.936;2022-10-18T10:46:50;101436.69;;;24.95;27.37
72707;BME280;62517;62.630;17.936;2022-10-18T10:49:21;101437.41;;;25.02;27.34
72707;BME280;62517;62.630;17.936;2022-10-18T10:51:54;101433.50;;;25.04;27.34
72707;BME280;62517;62.630;17.936;2022-10-18T10:54:26;101438.59;;;24.97;27.32
72707;BME280;62517;62.630;17.936;2022-10-18T10:56:59;101440.28;;;24.99;27.31
72707;BME280;62517;62.630;17.936;2022-10-18T10:59:30;101439.58;;;24.98;27.30
72707;BME280;62517;62.630;17.936;2022-10-18T11:02:19;101443.30;;;25.06;27.31
72707;BME280;62517;62.630;17.936;2022-10-18T11:04:51;101443.98;;;25.07;27.25
72707;BME280;62517;62.630;17.936;2022-10-18T11:07:24;101453.35;;;25.06;27.34
72707;BME280;62517;62.630;17.936;2022-10-18T11:09:58;101455.25;;;25.13;27.27
72707;BME280;62517;62.630;17.936;2022-10-18T11:12:32;101455.99;;;24.99;27.24
72707;BME280;62517;62.630;17.936;2022-10-18T11:15:09;101461.69;;;25.01;27.23
72707;BME280;62517;62.630;17.936;2022-10-18T11:17:42;101467.57;;;25.02;27.21
72707;BME280;62517;62.630;17.936;2022-10-18T11:20:20;101470.38;;;25.14;27.13
72707;BME280;62517;62.630;17.936;2022-10-18T11:22:58;101469.09;;;24.94;27.14
72707;BME280;62517;62.630;17.936;2022-10-18T11:25:39;101468.52;;;25.11;27.08
72707;BME280;62517;62.630;17.936;2022-10-18T11:28:22;101475.91;;;24.99;27.06
72707;BME280;62517;62.630;17.936;2022-10-18T11:31:05;101476.78;;;25.02;27.13
72707;BME280;62517;62.630;17.936;2022-10-18T11:33:47;101482.31;;;25.08;27.08
72707;BME280;62517;62.630;17.936;2022-10-18T11:36:25;101482.45;;;25.11;27.09
72707;BME280;62517;62.630;17.936;2022-10-18T11:39:01;101485.20;;;25.03;27.06
72707;BME280;62517;62.630;17.936;2022-10-18T11:41:34;101484.22;;;24.97;27.10
72707;BME280;62517;62.630;17.936;2022-10-18T11:44:13;101490.84;;;24.98;27.07
72707;BME280;62517;62.630;17.936;2022-10-18T11:46:56;101491.34;;;25.16;27.09
72707;BME280;62517;62.630;17.936;2022-10-18T11:49:41;101490.08;;;25.03;27.05
72707;BME280;62517;62.630;17.936;2022-10-18T11:52:22;101490.22;;;25.01;26.95
72707;BME280;62517;62.630;17.936;2022-10-18T11:55:13;101493.24;;;25.05;26.89
72707;BME280;62517;62.630;17.936;2022-10-18T11:57:51;101492.06;;;25.00;26.96
72707;BME280;62517;62.630;17.936;2022-10-18T12:00:36;101489.07;;;25.12;26.95
72707;BME280;62517;62.630;17.936;2022-10-18T12:03:20;101490.34;;;25.08;26.96
72707;BME280;62517;62.630;17.936;2022-10-18T12:06:01;101492.14;;;25.12;26.93
72707;BME280;62517;62.630;17.936;2022-10-18T12:08:34;101495.85;;;25.09;26.91
72707;BME280;62517;62.630;17.936;2022-10-18T12:11:11;101494.43;;;25.22;26.92
72707;BME280;62517;62.630;17.936;2022-10-18T12:13:46;101495.59;;;25.20;26.91
72707;BME280;62517;62.630;17.936;2022-10-18T12:16:19;101497.17;;;25.26;26.90
72707;BME280;62517;62.630;17.936;2022-10-18T12:18:53;101498.36;;;25.32;26.86
72707;BME280;62517;62.630;17.936;2022-10-18T12:21:26;101504.49;;;25.23;26.88
72707;BME280;62517;62.630;17.936;2022-10-18T12:23:58;101500.32;;;25.18;26.87
72707;BME280;62517;62.630;17.936;2022-10-18T12:26:31;101500.01;;;25.27;26.86
72707;BME280;62517;62.630;17.936;2022-10-18T12:29:11;101501.08;;;25.22;26.85
72707;BME280;62517;62.630;17.936;2022-10-18T12:31:49;101499.74;;;25.22;26.84
72707;BME280;62517;62.630;17.936;2022-10-18T12:34:40;101505.12;;;25.29;26.78
72707;BME280;62517;62.630;17.936;2022-10-18T12:37:30;101505.69;;;25.28;26.83
72707;BME280;62517;62.630;17.936;2022-10-18T12:40:09;101504.49;;;25.46;26.82
72707;BME280;62517;62.630;17.936;2022-10-18T12:42:42;101503.32;;;25.19;26.81
72707;BME280;62517;62.630;17.936;2022-10-18T12:45:24;101508.98;;;25.39;26.77
72707;BME280;62517;62.630;17.936;2022-10-18T12:47:58;101509.93;;;25.41;26.75
72707;BME280;62517;62.630;17.936;2022-10-18T12:50:32;101509.10;;;25.43;26.78
72707;BME280;62517;62.630;17.936;2022-10-18T12:53:04;101511.12;;;25.52;26.74
72707;BME280;62517;62.630;17.936;2022-10-18T12:55:35;101510.64;;;25.46;26.68
72707;BME280;62517;62.630;17.936;2022-10-18T12:58:24;101509.33;;;25.56;26.73
72707;BME280;62517;62.630;17.936;2022-10-18T13:00:56;101503.91;;;25.49;26.76
72707;BME280;62517;62.630;17.936;2022-10-18T13:03:52;101499.98;;;25.55;26.67
72707;BME280;62517;62.630;17.936;2022-10-18T13:06:22;101502.31;;;25.51;26.71
72707;BME280;62517;62.630;17.936;2022-10-18T13:09:16;101500.73;;;25.52;26.69
72707;BME280;62517;62.630;17.936;2022-10-18T13:11:44;101504.91;;;25.56;26.70
72707;BME280;62517;62.630;17.936;2022-10-18T13:14:36;101499.96;;;25.52;26.61
72707;BME280;62517;62.630;17.936;2022-10-18T13:17:19;101501.67;;;25.53;26.65
72707;BME280;62517;62.630;17.936;2022-10-18T13:19:59;101500.45;;;25.60;26.64
72707;BME280;62517;62.630;17.936;2022-10-18T13:22:49;101501.39;;;25.58;26.54
72707;BME280;62517;62.630;17.936;2022-10-18T13:25:27;101500.72;;;25.64;26.66
72707;BME280;62517;62.630;17.936;2022-10-18T13:28:03;101501.25;;;25.64;26.59
72707;BME280;62517;62.630;17.936;2022-10-18T13:30:47;101499.85;;;25.66;26.57
72707;BME280;62517;62.630;17.936;2022-10-18T13:33:28;101499.67;;;25.64;26.57
72707;BME280;62517;62.630;17.936;2022-10-18T13:35:59;101499.06;;;25.72;26.57
72707;BME280;62517;62.630;17.936;2022-10-18T13:38:41;101498.85;;;25.80;26.52
72707;BME280;62517;62.630;17.936;2022-10-18T13:41:13;101503.10;;;25.64;26.58
72707;BME280;62517;62.630;17.936;2022-10-18T13:44:09;101502.20;;;25.67;26.50
72707;BME280;62517;62.630;17.936;2022-10-18T13:47:13;101502.34;;;25.69;26.52
72707;BME280;62517;62.630;17.936;2022-10-18T13:50:47;101501.63;;;25.71;26.52
72707;BME280;62517;62.630;17.936;2022-10-18T13:53:37;101505.99;;;25.79;26.51
72707;BME280;62517;62.630;17.936;2022-10-18T13:56:22;101506.51;;;25.62;26.51
72707;BME280;62517;62.630;17.936;2022-10-18T13:59:13;101505.77;;;25.81;26.45
72707;BME280;62517;62.630;17.936;2022-10-18T14:01:53;101508.27;;;25.75;26.40
72707;BME280;62517;62.630;17.936;2022-10-18T14:04:58;101508.45;;;25.66;26.32
72707;BME280;62517;62.630;17.936;2022-10-18T14:07:33;101508.38;;;25.70;26.39
72707;BME280;62517;62.630;17.936;2022-10-18T14:10:02;101513.17;;;25.76;26.37
72707;BME280;62517;62.630;17.936;2022-10-18T14:12:38;101510.50;;;25.70;26.37
72707;BME280;62517;62.630;17.936;2022-10-18T14:15:13;101514.36;;;25.66;26.30
72707;BME280;62517;62.630;17.936;2022-10-18T14:17:47;101517.93;;;25.74;26.35
72707;BME280;62517;62.630;17.936;2022-10-18T14:20:22;101519.35;;;25.73;26.27
72707;BME280;62517;62.630;17.936;2022-10-18T14:23:00;101527.08;;;25.69;26.30
72707;BME280;62517;62.630;17.936;2022-10-18T14:25:33;101529.49;;;25.73;26.28
72707;BME280;62517;62.630;17.936;2022-10-18T14:28:04;101533.57;;;25.74;26.25
72707;BME280;62517;62.630;17.936;2022-10-18T14:30:34;101530.46;;;25.75;26.23
72707;BME280;62517;62.630;17.936;2022-10-18T14:33:03;101531.44;;;25.67;26.20
72707;BME280;62517;62.630;17.936;2022-10-18T14:35:32;101531.71;;;25.55;26.11
72707;BME280;62517;62.630;17.936;2022-10-18T14:38:02;101533.72;;;25.53;26.21
72707;BME280;62517;62.630;17.936;2022-10-18T14:40:34;101536.84;;;25.57;26.22
72707;BME280;62517;62.630;17.936;2022-10-18T14:43:06;101539.23;;;25.65;26.17
72707;BME280;62517;62.630;17.936;2022-10-18T14:45:38;101544.73;;;25.57;26.15
72707;BME280;62517;62.630;17.936;2022-10-18T14:48:13;101545.36;;;25.66;26.23
72707;BME280;62517;62.630;17.936;2022-10-18T14:50:43;101550.92;;;25.54;26.12
72707;BME280;62517;62.630;17.936;2022-10-18T14:53:15;101554.03;;;25.51;26.10
72707;BME280;62517;62.630;17.936;2022-10-18T14:55:52;101556.70;;;25.62;26.12
72707;BME280;62517;62.630;17.936;2022-10-18T14:58:22;101560.45;;;25.52;26.05
72707;BME280;62517;62.630;17.936;2022-10-18T15:00:51;101563.62;;;25.51;26.05
72707;BME280;62517;62.630;17.936;2022-10-18T15:03:20;101569.43;;;25.53;26.10
72707;BME280;62517;62.630;17.936;2022-10-18T15:05:53;101574.25;;;25.49;26.08
72707;BME280;62517;62.630;17.936;2022-10-18T15:08:24;101577.49;;;25.53;25.99
72707;BME280;62517;62.630;17.936;2022-10-18T15:10:54;101579.34;;;25.47;26.11
72707;BME280;62517;62.630;17.936;2022-10-18T15:13:23;101579.29;;;25.46;25.96
72707;BME280;62517;62.630;17.936;2022-10-18T15:15:54;101585.49;;;25.56;26.03
72707;BME280;62517;62.630;17.936;2022-10-18T15:18:24;101590.48;;;25.31;26.00
72707;BME280;62517;62.630;17.936;2022-10-18T15:21:20;101596.65;;;25.41;26.01
72707;BME280;62517;62.630;17.936;2022-10-18T15:23:51;101601.35;;;25.43;26.07
72707;BME280;62517;62.630;17.936;2022-10-18T15:26:22;101603.22;;;25.39;26.00
72707;BME280;62517;62.630;17.936;2022-10-18T15:28:55;101604.65;;;25.30;26.10
72707;BME280;62517;62.630;17.936;2022-10-18T15:31:27;101606.21;;;25.25;26.04
72707;BME280;62517;62.630;17.936;2022-10-18T15:34:08;101609.96;;;25.20;25.98
72707;BME280;62517;62.630;17.936;2022-10-18T15:36:38;101610.35;;;25.25;25.99
72707;BME280;62517;62.630;17.936;2022-10-18T15:39:14;101610.99;;;25.23;25.94
72707;BME280;62517;62.630;17.936;2022-10-18T15:41:46;101617.15;;;25.21;25.96
72707;BME280;62517;62.630;17.936;2022-10-18T15:44:21;101618.54;;;25.21;25.95
72707;BME280;62517;62.630;17.936;2022-10-18T15:46:53;101622.70;;;25.22;26.03
72707;BME280;62517;62.630;17.936;2022-10-18T15:49:55;101624.90;;;25.27;26.01
